Time;durP1;ratioP1;P1;durP2;ratioP2;P2;SDS_P1;SDS_P2;PMS_P1;PMS_P2;Temp;Humidity;BMP_temperature;BMP_pressure;BME280_temperature;BME280_humidity;BME280_pressure;Samples;Min_cycle;Max_cycle;Signal;HPM_P1;HPM_P2
2023/12/08 00:02:17;;;;;;;61.72;21.95;;;;;;;;;;4986303;28;20054;-51
2023/12/08 00:04:57;;;;;;;62.05;20.40;;;;;;;;;;4980571;28;20120;-61
2023/12/08 00:07:31;;;;;;;70.18;22.70;;;;;;;;;;4980845;28;20062;-61
2023/12/08 00:10:05;;;;;;;70.38;23.48;;;;;;;;;;4980952;28;20050;-61
2023/12/08 00:12:32;;;;;;;;;;;;;;;;;;4981045;28;20457;-62
2023/12/08 00:14:59;;;;;;;75.55;22.40;;;;;;;;;;4982948;28;19922;-61
2023/12/08 00:17:59;;;;;;;75.72;22.73;;;;;;;;;;4982766;28;20043;-61
2023/12/08 00:20:27;;;;;;;82.10;24.17;;;;;;;;;;4978593;28;20537;-61
2023/12/08 00:23:01;;;;;;;88.10;24.83;;;;;;;;;;4980324;28;20068;-67
2023/12/08 00:25:28;;;;;;;93.88;25.38;;;;;;;;;;4977993;28;20300;-67
2023/12/08 00:27:55;;;;;;;;;;;;;;;;;;4984898;28;20065;-68
2023/12/08 00:30:30;;;;;;;83.05;23.52;;;;;;;;;;4979929;28;20016;-69
2023/12/08 00:32:57;;;;;;;106.55;24.08;;;;;;;;;;4982940;28;20084;-62
2023/12/08 00:35:31;;;;;;;81.13;23.23;;;;;;;;;;4977091;28;20058;-53
2023/12/08 00:37:58;;;;;;;93.68;24.45;;;;;;;;;;4980026;28;20691;-60
2023/12/08 00:40:25;;;;;;;92.25;24.20;;;;;;;;;;4980530;28;20112;-58
2023/12/08 00:43:00;;;;;;;102.20;25.45;;;;;;;;;;4980882;28;20109;-60
2023/12/08 00:45:27;;;;;;;90.03;24.20;;;;;;;;;;4977911;28;20049;-60
2023/12/08 00:47:54;;;;;;;96.00;25.40;;;;;;;;;;4977770;28;20513;-60
2023/12/08 00:50:32;;;;;;;92.13;24.88;;;;;;;;;;4984168;28;20055;-59
2023/12/08 00:52:59;;;;;;;95.95;25.27;;;;;;;;;;4979261;28;20062;-58
2023/12/08 00:55:33;;;;;;;89.90;25.08;;;;;;;;;;4981027;28;20128;-59
2023/12/08 00:58:00;;;;;;;;;;;;;;;;;;4980236;28;20050;-59
2023/12/08 01:00:27;;;;;;;73.28;22.48;;;;;;;;;;4976840;28;20344;-59
2023/12/08 01:03:01;;;;;;;77.18;23.55;;;;;;;;;;4978198;28;20080;-54
2023/12/08 01:05:28;;;;;;;78.28;24.98;;;;;;;;;;4984170;28;20725;-61
2023/12/08 01:08:09;;;;;;;76.55;24.27;;;;;;;;;;4979665;28;20047;-61
2023/12/08 01:10:37;;;;;;;72.32;23.88;;;;;;;;;;4979448;28;20057;-61
2023/12/08 01:13:11;;;;;;;73.07;24.63;;;;;;;;;;4976934;28;20061;-61
2023/12/08 01:15:38;;;;;;;;;;;;;;;;;;4982981;28;20403;-61
2023/12/08 01:18:05;;;;;;;71.63;23.33;;;;;;;;;;4978557;28;20453;-61
2023/12/08 01:20:39;;;;;;;88.60;27.25;;;;;;;;;;4980641;28;20598;-59
2023/12/08 01:23:06;;;;;;;69.28;23.70;;;;;;;;;;4982109;28;20070;-56
2023/12/08 01:25:40;;;;;;;69.20;25.08;;;;;;;;;;4978339;28;20101;-59
2023/12/08 01:28:07;;;;;;;69.95;25.20;;;;;;;;;;4984573;28;20058;-60
2023/12/08 01:30:34;;;;;;;71.35;25.65;;;;;;;;;;4981020;28;20090;-60
2023/12/08 01:33:08;;;;;;;72.45;24.30;;;;;;;;;;4980765;28;20054;-70
2023/12/08 01:35:35;;;;;;;;;;;;;;;;;;4985941;28;20462;-69
2023/12/08 01:38:02;;;;;;;55.58;21.42;;;;;;;;;;4983831;28;19922;-69
2023/12/08 01:40:39;;;;;;;55.60;22.48;;;;;;;;;;4982384;28;20050;-70
2023/12/08 01:43:10;;;;;;;62.35;22.98;;;;;;;;;;4983816;28;20147;-70
2023/12/08 01:45:45;;;;;;;46.38;21.35;;;;;;;;;;4983281;28;20058;-70
2023/12/08 01:48:12;;;;;;;45.47;21.80;;;;;;;;;;4978931;28;20050;-66
2023/12/08 01:50:40;;;;;;;;;;;;;;;;;;4984278;28;20065;-67
2023/12/08 01:53:14;;;;;;;53.88;20.23;;;;;;;;;;4981784;28;19926;-67
2023/12/08 01:55:41;;;;;;;50.53;21.23;;;;;;;;;;4982973;28;20920;-67
2023/12/08 01:58:09;;;;;;;54.25;21.38;;;;;;;;;;4977229;28;20525;-66
2023/12/08 02:00:45;;;;;;;49.63;21.55;;;;;;;;;;4979571;28;20054;-56
2023/12/08 02:03:16;;;;;;;49.22;21.25;;;;;;;;;;4979154;28;20140;-59
2023/12/08 02:05:56;;;;;;;48.97;21.25;;;;;;;;;;4984879;28;20085;-58
2023/12/08 02:08:24;;;;;;;43.80;20.05;;;;;;;;;;4983123;28;20050;-59
2023/12/08 02:10:58;;;;;;;42.95;20.42;;;;;;;;;;4982951;28;20568;-54
2023/12/08 02:13:25;;;;;;;42.95;20.80;;;;;;;;;;4978341;28;20077;-58
2023/12/08 02:15:56;;;;;;;50.30;21.50;;;;;;;;;;4981058;28;20058;-56
2023/12/08 02:18:33;;;;;;;46.17;21.20;;;;;;;;;;4977228;28;20667;-58
2023/12/08 02:21:01;;;;;;;47.35;20.70;;;;;;;;;;4980928;28;20467;-53
2023/12/08 02:23:55;;;;;;;44.78;20.65;;;;;;;;;;4980492;28;20046;-54
2023/12/08 02:26:42;;;;;;;42.70;20.70;;;;;;;;;;4983357;28;20140;-53
2023/12/08 02:29:36;;;;;;;40.38;19.10;;;;;;;;;;4987012;28;20065;-52
2023/12/08 02:32:23;;;;;;;39.97;20.08;;;;;;;;;;4980434;28;20065;-54
2023/12/08 02:35:19;;;;;;;41.55;19.13;;;;;;;;;;4986647;28;20513;-55
2023/12/08 02:38:15;;;;;;;41.03;19.63;;;;;;;;;;4978611;28;20047;-53
2023/12/08 02:41:10;;;;;;;38.92;19.52;;;;;;;;;;4982143;28;20140;-50
2023/12/08 02:44:03;;;;;;;41.42;19.02;;;;;;;;;;4983523;28;20053;-55
2023/12/08 02:46:51;;;;;;;41.33;19.90;;;;;;;;;;4982646;28;20058;-70
2023/12/08 02:49:44;;;;;;;40.15;20.50;;;;;;;;;;4980600;28;20582;-60
2023/12/08 02:52:38;;;;;;;40.38;21.00;;;;;;;;;;4977340;28;20058;-58
2023/12/08 02:55:26;;;;;;;40.08;20.52;;;;;;;;;;4982830;28;20050;-59
2023/12/08 02:58:20;;;;;;;37.83;19.65;;;;;;;;;;4983220;28;20054;-58
2023/12/08 03:01:07;;;;;;;37.00;19.95;;;;;;;;;;4981136;28;20137;-59
2023/12/08 03:04:01;;;;;;;40.33;19.48;;;;;;;;;;4981987;28;20073;-59
2023/12/08 03:06:54;;;;;;;39.10;20.63;;;;;;;;;;4974344;28;20141;-58
2023/12/08 03:09:48;;;;;;;41.78;20.40;;;;;;;;;;4981741;28;20524;-58
2023/12/08 03:12:42;;;;;;;39.38;20.45;;;;;;;;;;4977096;28;20054;-56
2023/12/08 03:15:29;;;;;;;39.40;20.30;;;;;;;;;;4981515;28;20062;-68
2023/12/08 03:18:23;;;;;;;46.83;21.05;;;;;;;;;;4979263;28;20109;-53
2023/12/08 03:21:20;;;;;;;42.60;21.67;;;;;;;;;;4978493;28;20058;-51
2023/12/08 03:24:14;;;;;;;43.05;20.38;;;;;;;;;;4981778;28;20695;-47
2023/12/08 03:27:01;;;;;;;36.42;18.48;;;;;;;;;;4982176;28;20572;-52
2023/12/08 03:29:55;;;;;;;40.50;21.45;;;;;;;;;;4984921;28;20415;-53
2023/12/08 03:32:42;;;;;;;42.40;20.45;;;;;;;;;;4981565;28;20141;-65
2023/12/08 03:35:36;;;;;;;39.20;19.77;;;;;;;;;;4979099;28;20057;-67
2023/12/08 03:38:23;;;;;;;36.70;19.83;;;;;;;;;;4979745;28;20077;-66
2023/12/08 03:41:17;;;;;;;42.40;20.17;;;;;;;;;;4979310;28;20500;-65
2023/12/08 03:44:04;;;;;;;43.45;20.77;;;;;;;;;;4980329;28;20841;-49
2023/12/08 03:46:58;;;;;;;39.63;20.23;;;;;;;;;;4977247;28;20222;-58
2023/12/08 03:49:45;;;;;;;42.60;20.52;;;;;;;;;;4979996;28;20145;-60
2023/12/08 03:52:38;;;;;;;38.20;20.00;;;;;;;;;;4979374;28;20755;-58
2023/12/08 03:55:26;;;;;;;40.83;20.60;;;;;;;;;;4979970;28;21193;-56
2023/12/08 03:58:20;;;;;;;39.45;19.60;;;;;;;;;;4980974;28;20061;-62
2023/12/08 04:01:07;;;;;;;39.30;19.83;;;;;;;;;;4979108;28;20118;-51
2023/12/08 04:04:01;;;;;;;40.95;20.38;;;;;;;;;;4980625;28;20505;-53
2023/12/08 04:07:00;;;;;;;38.20;19.67;;;;;;;;;;4979474;28;20511;-50
2023/12/08 04:09:54;;;;;;;37.05;18.58;;;;;;;;;;4979872;28;20126;-67
2023/12/08 04:12:42;;;;;;;38.60;19.10;;;;;;;;;;4978326;28;20101;-55
2023/12/08 04:15:36;;;;;;;35.85;18.20;;;;;;;;;;4979532;28;20505;-67
2023/12/08 04:18:23;;;;;;;31.63;17.20;;;;;;;;;;4978403;28;20050;-69
2023/12/08 04:21:17;;;;;;;33.17;17.98;;;;;;;;;;4977794;28;20054;-68
2023/12/08 04:24:05;;;;;;;34.95;17.05;;;;;;;;;;4979721;28;20524;-68
2023/12/08 04:26:58;;;;;;;35.67;17.30;;;;;;;;;;4978142;28;20065;-68
2023/12/08 04:29:46;;;;;;;32.60;16.70;;;;;;;;;;4976993;28;20058;-59
2023/12/08 04:32:40;;;;;;;33.33;16.50;;;;;;;;;;4973536;28;20105;-58
2023/12/08 04:35:34;;;;;;;30.15;16.67;;;;;;;;;;4978375;28;20058;-58
2023/12/08 04:38:28;;;;;;;30.42;16.08;;;;;;;;;;4980867;28;20105;-57
2023/12/08 04:41:15;;;;;;;32.22;16.75;;;;;;;;;;4983028;28;20049;-65
2023/12/08 04:44:09;;;;;;;31.42;16.40;;;;;;;;;;4981127;28;20588;-51
2023/12/08 04:46:56;;;;;;;34.28;16.33;;;;;;;;;;4976597;28;20090;-54
2023/12/08 04:49:50;;;;;;;29.60;15.23;;;;;;;;;;4978301;28;20062;-52
2023/12/08 04:52:37;;;;;;;33.10;17.58;;;;;;;;;;4978944;28;20145;-48
2023/12/08 04:55:31;;;;;;;36.70;17.25;;;;;;;;;;4977612;28;20066;-51
2023/12/08 04:58:20;;;;;;;33.88;17.15;;;;;;;;;;4979928;28;20058;-59
2023/12/08 05:01:13;;;;;;;30.30;15.80;;;;;;;;;;4980426;28;20050;-59
2023/12/08 05:04:01;;;;;;;35.65;16.95;;;;;;;;;;4981177;28;20680;-59
2023/12/08 05:07:07;;;;;;;32.50;16.55;;;;;;;;;;4979455;28;20136;-57
2023/12/08 05:10:02;;;;;;;31.98;16.95;;;;;;;;;;4984718;28;20050;-54
2023/12/08 05:12:55;;;;;;;30.58;16.17;;;;;;;;;;4981100;28;20059;-58
2023/12/08 05:15:43;;;;;;;30.60;15.63;;;;;;;;;;4976460;28;20509;-57
2023/12/08 05:18:36;;;;;;;31.35;16.38;;;;;;;;;;4978837;28;20202;-58
2023/12/08 05:21:24;;;;;;;26.02;14.38;;;;;;;;;;4979188;28;20046;-59
2023/12/08 05:24:18;;;;;;;29.10;15.30;;;;;;;;;;4982819;28;20128;-59
2023/12/08 05:27:05;;;;;;;32.37;15.77;;;;;;;;;;4982389;28;20066;-56
2023/12/08 05:29:59;;;;;;;32.90;16.15;;;;;;;;;;4981721;28;20112;-57
2023/12/08 05:32:48;;;;;;;32.75;15.38;;;;;;;;;;4975421;28;20066;-58
2023/12/08 05:35:42;;;;;;;30.52;16.60;;;;;;;;;;4977262;28;20050;-51
2023/12/08 05:38:32;;;;;;;31.08;15.27;;;;;;;;;;4979663;28;20573;-48
2023/12/08 05:41:26;;;;;;;29.85;15.57;;;;;;;;;;4977607;28;20073;-52
2023/12/08 05:44:15;;;;;;;30.60;15.02;;;;;;;;;;4977535;28;20053;-52
2023/12/08 05:47:08;;;;;;;29.35;15.48;;;;;;;;;;4977424;28;20550;-54
2023/12/08 05:49:56;;;;;;;33.90;16.08;;;;;;;;;;4980896;28;20065;-54
2023/12/08 05:52:49;;;;;;;32.28;16.35;;;;;;;;;;4980354;28;20070;-53
2023/12/08 05:55:37;;;;;;;34.53;16.75;;;;;;;;;;4975302;28;20050;-65
2023/12/08 05:58:30;;;;;;;38.20;16.90;;;;;;;;;;4976771;28;20054;-65
2023/12/08 06:01:19;;;;;;;33.83;16.02;;;;;;;;;;4980335;28;20497;-65
2023/12/08 06:04:11;;;;;;;38.33;17.52;;;;;;;;;;4983045;28;20067;-51
2023/12/08 06:07:05;;;;;;;36.45;17.45;;;;;;;;;;4983198;28;20073;-69
2023/12/08 06:10:00;;;;;;;36.78;17.70;;;;;;;;;;4980926;28;20153;-56
2023/12/08 06:12:47;;;;;;;40.10;18.00;;;;;;;;;;4984055;28;20062;-56
2023/12/08 06:15:41;;;;;;;34.03;16.45;;;;;;;;;;4979841;28;20050;-58
2023/12/08 06:18:28;;;;;;;37.60;17.48;;;;;;;;;;4985769;28;20410;-57
2023/12/08 06:21:22;;;;;;;33.03;16.67;;;;;;;;;;4987794;28;20460;-57
2023/12/08 06:24:09;;;;;;;30.65;16.00;;;;;;;;;;4981996;28;20059;-68
2023/12/08 06:27:03;;;;;;;29.60;15.50;;;;;;;;;;4983454;28;20152;-68
2023/12/08 06:29:51;;;;;;;30.73;15.52;;;;;;;;;;4979474;28;20072;-68
2023/12/08 06:32:45;;;;;;;27.38;14.55;;;;;;;;;;4982711;28;20050;-60
2023/12/08 06:35:32;;;;;;;24.33;13.70;;;;;;;;;;4982589;28;20062;-65
2023/12/08 06:38:25;;;;;;;30.63;14.98;;;;;;;;;;4980538;28;20249;-66
2023/12/08 06:41:13;;;;;;;31.50;14.93;;;;;;;;;;4982934;28;20168;-66
2023/12/08 06:44:06;;;;;;;29.98;15.18;;;;;;;;;;4977761;28;20069;-66
2023/12/08 06:46:54;;;;;;;33.25;16.08;;;;;;;;;;4980153;28;20521;-66
2023/12/08 06:49:47;;;;;;;30.75;15.18;;;;;;;;;;4985451;28;20101;-66
2023/12/08 06:52:36;;;;;;;34.20;16.40;;;;;;;;;;4981466;28;20410;-66
2023/12/08 06:55:29;;;;;;;31.58;15.48;;;;;;;;;;4981552;28;20402;-66
2023/12/08 06:58:17;;;;;;;35.05;16.92;;;;;;;;;;4978268;28;20050;-65
2023/12/08 07:01:10;;;;;;;35.75;15.57;;;;;;;;;;4978733;28;20529;-57
2023/12/08 07:03:58;;;;;;;35.92;15.32;;;;;;;;;;4982753;28;20309;-50
2023/12/08 07:06:58;;;;;;;38.30;17.35;;;;;;;;;;4980941;28;20112;-51
2023/12/08 07:09:46;;;;;;;38.35;17.70;;;;;;;;;;4981678;28;20100;-52
2023/12/08 07:12:39;;;;;;;35.28;17.20;;;;;;;;;;4982800;28;20683;-51
2023/12/08 07:15:27;;;;;;;39.25;18.13;;;;;;;;;;4985180;28;20100;-54
2023/12/08 07:18:20;;;;;;;38.25;18.17;;;;;;;;;;4980377;28;20049;-51
2023/12/08 07:21:08;;;;;;;44.45;19.80;;;;;;;;;;4985002;28;20057;-57
2023/12/08 07:24:01;;;;;;;49.15;20.40;;;;;;;;;;4978096;28;20149;-55
2023/12/08 07:26:54;;;;;;;49.92;20.65;;;;;;;;;;4984144;28;20056;-57
2023/12/08 07:29:43;;;;;;;48.15;20.67;;;;;;;;;;4979445;28;20418;-60
2023/12/08 07:32:30;;;;;;;44.38;18.17;;;;;;;;;;4984855;28;20051;-56
2023/12/08 07:35:25;;;;;;;51.75;20.75;;;;;;;;;;4977290;28;20085;-56
2023/12/08 07:38:12;;;;;;;48.65;20.63;;;;;;;;;;4982488;28;20108;-55
2023/12/08 07:41:06;;;;;;;50.47;22.15;;;;;;;;;;4983638;28;20089;-57
2023/12/08 07:44:00;;;;;;;50.45;21.33;;;;;;;;;;4978847;28;20708;-54
2023/12/08 07:46:55;;;;;;;53.25;22.10;;;;;;;;;;4983000;28;20345;-57
2023/12/08 07:49:42;;;;;;;58.05;21.27;;;;;;;;;;4980069;28;20421;-56
2023/12/08 07:52:37;;;;;;;45.22;20.27;;;;;;;;;;4979505;28;20502;-56
2023/12/08 07:55:24;;;;;;;51.33;20.67;;;;;;;;;;4979223;28;20057;-56
2023/12/08 07:58:16;;;;;;;51.20;20.83;;;;;;;;;;4978304;28;20058;-59
2023/12/08 08:01:11;;;;;;;51.53;22.08;;;;;;;;;;4978529;28;20113;-52
2023/12/08 08:03:58;;;;;;;49.88;21.42;;;;;;;;;;4980841;28;20124;-51
2023/12/08 08:06:58;;;;;;;52.50;21.83;;;;;;;;;;4978298;28;20069;-53
2023/12/08 08:09:55;;;;;;;54.58;22.33;;;;;;;;;;4981648;28;20215;-50
2023/12/08 08:12:43;;;;;;;57.15;23.15;;;;;;;;;;4977063;28;20076;-54
2023/12/08 08:15:37;;;;;;;67.50;24.20;;;;;;;;;;4982489;28;20038;-51
2023/12/08 08:18:24;;;;;;;57.83;21.38;;;;;;;;;;4983682;28;20053;-58
2023/12/08 08:21:18;;;;;;;56.13;22.77;;;;;;;;;;4982740;28;20486;-58
2023/12/08 08:24:05;;;;;;;58.65;21.98;;;;;;;;;;4978211;28;20089;-59
2023/12/08 08:26:58;;;;;;;62.03;23.13;;;;;;;;;;4978403;28;20050;-60
2023/12/08 08:29:46;;;;;;;67.20;24.63;;;;;;;;;;4977009;28;20462;-66
2023/12/08 08:32:40;;;;;;;65.00;22.65;;;;;;;;;;4979873;28;20078;-66
2023/12/08 08:35:27;;;;;;;59.10;18.77;;;;;;;;;;4983476;28;20061;-66
2023/12/08 08:38:21;;;;;;;69.60;23.02;;;;;;;;;;4986721;28;20085;-67
2023/12/08 08:41:08;;;;;;;75.40;23.10;;;;;;;;;;4986477;28;20069;-66
2023/12/08 08:44:02;;;;;;;76.18;25.17;;;;;;;;;;4983573;28;20502;-66
2023/12/08 08:46:49;;;;;;;71.57;23.10;;;;;;;;;;4982902;28;20124;-61
2023/12/08 08:49:43;;;;;;;83.95;24.73;;;;;;;;;;4981331;28;20298;-60
2023/12/08 08:52:31;;;;;;;71.93;23.98;;;;;;;;;;4986400;28;20461;-60
2023/12/08 08:55:25;;;;;;;67.93;23.13;;;;;;;;;;4980745;28;20571;-55
2023/12/08 08:58:12;;;;;;;67.35;21.48;;;;;;;;;;4984993;28;20240;-55
2023/12/08 09:01:05;;;;;;;64.38;20.42;;;;;;;;;;4983559;28;20058;-57
2023/12/08 09:03:53;;;;;;;67.50;22.52;;;;;;;;;;4984515;28;20495;-56
2023/12/08 09:06:56;;;;;;;62.63;20.60;;;;;;;;;;4986506;28;20058;-57
2023/12/08 09:09:42;;;;;;;57.30;21.30;;;;;;;;;;4985791;28;20050;-55
2023/12/08 09:12:36;;;;;;;63.40;21.48;;;;;;;;;;4983758;28;20749;-55
2023/12/08 09:15:23;;;;;;;56.45;19.92;;;;;;;;;;4986944;28;20053;-66
2023/12/08 09:18:16;;;;;;;61.17;20.20;;;;;;;;;;4982869;28;20057;-66
2023/12/08 09:21:05;;;;;;;49.50;18.35;;;;;;;;;;4983779;28;20050;-66
2023/12/08 09:24:03;;;;;;;;;;;;;;;;;;4982659;28;20156;-52
2023/12/08 09:26:52;;;;;;;44.47;17.83;;;;;;;;;;4980485;28;20548;-68
2023/12/08 09:29:45;;;;;;;47.88;18.38;;;;;;;;;;4983911;28;20057;-69
2023/12/08 09:32:32;;;;;;;43.85;17.33;;;;;;;;;;4984370;28;20142;-67
2023/12/08 09:35:26;;;;;;;43.15;17.73;;;;;;;;;;4983485;28;20054;-68
2023/12/08 09:38:13;;;;;;;46.35;16.40;;;;;;;;;;4986770;28;20050;-68
2023/12/08 09:41:07;;;;;;;45.50;18.02;;;;;;;;;;4985763;28;20073;-68
2023/12/08 09:44:03;;;;;;;46.67;18.63;;;;;;;;;;4980237;28;20061;-60
2023/12/08 09:46:58;;;;;;;46.70;17.92;;;;;;;;;;4983467;28;20571;-61
2023/12/08 09:49:59;;;;;;;47.33;17.67;;;;;;;;;;4984119;28;20057;-59
2023/12/08 09:52:56;;;;;;;45.35;17.75;;;;;;;;;;4983522;28;20341;-55
2023/12/08 09:55:51;;;;;;;39.97;15.77;;;;;;;;;;4982794;28;20045;-68
2023/12/08 09:58:45;;;;;;;49.05;18.20;;;;;;;;;;4979552;28;20097;-68
2023/12/08 10:01:33;;;;;;;44.20;16.58;;;;;;;;;;4983326;28;20055;-68
2023/12/08 10:04:27;;;;;;;41.38;16.85;;;;;;;;;;4982591;28;20486;-68
2023/12/08 10:07:15;;;;;;;38.10;15.82;;;;;;;;;;4980890;28;20506;-68
2023/12/08 10:10:24;;;;;;;39.85;16.30;;;;;;;;;;4985831;28;20057;-58
2023/12/08 10:13:18;;;;;;;38.45;13.27;;;;;;;;;;4983593;28;20109;-58
2023/12/08 10:16:12;;;;;;;42.95;14.98;;;;;;;;;;4983054;28;20054;-58
2023/12/08 10:19:05;;;;;;;34.35;11.55;;;;;;;;;;4985162;28;20058;-57
2023/12/08 10:22:02;;;;;;;43.17;16.52;;;;;;;;;;4986953;28;20055;-68
2023/12/08 10:24:56;;;;;;;38.65;14.88;;;;;;;;;;4979876;28;20128;-66
2023/12/08 10:27:52;;;;;;;38.25;15.07;;;;;;;;;;4984060;28;20185;-66
2023/12/08 10:30:45;;;;;;;35.83;15.35;;;;;;;;;;4983595;28;20057;-66
2023/12/08 10:33:40;;;;;;;35.42;13.13;;;;;;;;;;4982055;28;20050;-66
2023/12/08 10:36:27;;;;;;;36.50;14.15;;;;;;;;;;4976651;28;20137;-66
2023/12/08 10:39:22;;;;;;;36.35;14.40;;;;;;;;;;4981383;28;20109;-66
2023/12/08 10:42:08;;;;;;;36.25;14.05;;;;;;;;;;4976430;28;20053;-66
2023/12/08 10:45:02;;;;;;;37.30;14.52;;;;;;;;;;4979098;28;20046;-65
2023/12/08 10:47:49;;;;;;;33.00;13.98;;;;;;;;;;4979358;28;20054;-65
2023/12/08 10:50:44;;;;;;;36.75;14.82;;;;;;;;;;4981002;28;20141;-54
2023/12/08 10:53:38;;;;;;;32.78;13.48;;;;;;;;;;4983977;28;20568;-51
2023/12/08 10:56:26;;;;;;;35.28;15.00;;;;;;;;;;4983423;28;20050;-50
2023/12/08 10:59:24;;;;;;;38.20;14.85;;;;;;;;;;4980816;28;20082;-48
2023/12/08 11:02:21;;;;;;;31.58;13.85;;;;;;;;;;4983414;28;20130;-52
2023/12/08 11:05:22;;;;;;;33.22;13.82;;;;;;;;;;4980181;28;20403;-51
2023/12/08 11:08:16;;;;;;;34.30;13.63;;;;;;;;;;4980414;28;20046;-50
2023/12/08 11:11:12;;;;;;;29.60;13.05;;;;;;;;;;4980865;28;20256;-48
2023/12/08 11:14:09;;;;;;;33.97;13.93;;;;;;;;;;4978783;28;20050;-52
2023/12/08 11:17:07;;;;;;;30.67;12.23;;;;;;;;;;4978957;28;20493;-59
2023/12/08 11:19:52;;;;;;;29.17;12.00;;;;;;;;;;4979973;28;20050;-65
2023/12/08 11:22:46;;;;;;;27.67;12.35;;;;;;;;;;4981925;28;20062;-66
2023/12/08 11:25:38;;;;;;;32.25;13.25;;;;;;;;;;4981276;28;20057;-65
2023/12/08 11:28:39;;;;;;;32.78;12.93;;;;;;;;;;4980213;28;20058;-65
2023/12/08 11:31:26;;;;;;;33.20;13.13;;;;;;;;;;4983027;28;20057;-65
2023/12/08 11:34:22;;;;;;;27.48;12.05;;;;;;;;;;4985061;28;20050;-66
2023/12/08 11:37:11;;;;;;;31.13;13.27;;;;;;;;;;4981076;28;20097;-59
2023/12/08 11:40:12;;;;;;;28.05;11.73;;;;;;;;;;4981544;28;20258;-59
2023/12/08 11:43:01;;;;;;;31.75;13.57;;;;;;;;;;4980301;28;20050;-56
2023/12/08 11:45:53;;;;;;;32.08;13.15;;;;;;;;;;4979877;28;20465;-58
2023/12/08 11:48:41;;;;;;;37.35;14.85;;;;;;;;;;4979042;28;20141;-59
2023/12/08 11:51:37;;;;;;;37.88;15.38;;;;;;;;;;4978401;28;20054;-60
2023/12/08 11:54:24;;;;;;;36.20;15.63;;;;;;;;;;4975195;28;20054;-60
2023/12/08 11:57:36;;;;;;;40.92;16.20;;;;;;;;;;4977326;28;20494;-60
2023/12/08 12:00:30;;;;;;;40.60;16.38;;;;;;;;;;4979362;28;20058;-60
2023/12/08 12:03:26;;;;;;;45.15;17.08;;;;;;;;;;4977778;28;20085;-60
2023/12/08 12:06:35;;;;;;;42.58;17.52;;;;;;;;;;4976597;28;20424;-69
2023/12/08 12:09:32;;;;;;;47.13;17.08;;;;;;;;;;4980776;28;20073;-69
2023/12/08 12:12:32;;;;;;;38.55;15.90;;;;;;;;;;4976584;28;20069;-68
2023/12/08 12:15:20;;;;;;;38.95;16.73;;;;;;;;;;4975493;28;20128;-60
2023/12/08 12:18:14;;;;;;;47.20;16.98;;;;;;;;;;4975397;28;20073;-60
2023/12/08 12:21:02;;;;;;;43.00;17.08;;;;;;;;;;4984915;28;20050;-60
2023/12/08 12:23:56;;;;;;;44.22;17.63;;;;;;;;;;4986306;28;20120;-60
2023/12/08 12:26:43;;;;;;;46.00;18.95;;;;;;;;;;4979228;28;20409;-60
2023/12/08 12:29:37;;;;;;;45.78;17.77;;;;;;;;;;4978049;28;20073;-60
2023/12/08 12:32:24;;;;;;;41.22;15.60;;;;;;;;;;4979558;28;20305;-68
2023/12/08 12:35:19;;;;;;;47.58;19.45;;;;;;;;;;4978172;28;20703;-69
2023/12/08 12:38:23;;;;;;;48.90;19.77;;;;;;;;;;4981489;28;20397;-68
2023/12/08 12:41:20;;;;;;;50.15;19.60;;;;;;;;;;4975740;28;20073;-68
2023/12/08 12:44:07;;;;;;;56.35;20.90;;;;;;;;;;4975934;28;20062;-59
2023/12/08 12:47:00;;;;;;;55.55;19.70;;;;;;;;;;4978206;28;20050;-59
2023/12/08 12:50:05;;;;;;;60.08;21.23;;;;;;;;;;4981640;28;20098;-59
2023/12/08 12:53:03;;;;;;;55.92;22.05;;;;;;;;;;4980005;28;20074;-58
2023/12/08 12:56:08;;;;;;;50.33;18.02;;;;;;;;;;4980466;28;20600;-58
2023/12/08 12:59:09;;;;;;;56.78;19.58;;;;;;;;;;4980883;28;20050;-58
2023/12/08 13:01:57;;;;;;;59.17;21.00;;;;;;;;;;4983121;28;20050;-68
2023/12/08 13:04:50;;;;;;;54.33;20.05;;;;;;;;;;4979114;28;20050;-68
2023/12/08 13:07:55;;;;;;;56.20;21.33;;;;;;;;;;4980329;28;20492;-68
2023/12/08 13:10:49;;;;;;;55.72;20.40;;;;;;;;;;4981176;28;20061;-55
2023/12/08 13:13:37;;;;;;;49.95;17.80;;;;;;;;;;4980356;28;21238;-57
2023/12/08 13:16:32;;;;;;;56.58;21.15;;;;;;;;;;4979514;28;20489;-59
2023/12/08 13:19:20;;;;;;;56.42;21.63;;;;;;;;;;4980383;28;20050;-59
2023/12/08 13:22:15;;;;;;;58.95;21.00;;;;;;;;;;4982077;28;20157;-59
2023/12/08 13:25:02;;;;;;;58.58;22.25;;;;;;;;;;4981331;28;20050;-59
2023/12/08 13:27:56;;;;;;;52.97;20.52;;;;;;;;;;4980070;28;20441;-59
2023/12/08 13:30:43;;;;;;;58.88;22.60;;;;;;;;;;4983533;28;20124;-60
2023/12/08 13:33:37;;;;;;;62.95;21.83;;;;;;;;;;4987219;28;21010;-60
2023/12/08 13:36:24;;;;;;;58.90;22.48;;;;;;;;;;4982819;28;20050;-61
2023/12/08 13:39:18;;;;;;;47.45;15.75;;;;;;;;;;4985038;28;20054;-56
2023/12/08 13:42:05;;;;;;;60.28;21.40;;;;;;;;;;4982147;28;20058;-66
2023/12/08 13:45:01;;;;;;;60.53;21.67;;;;;;;;;;4981208;28;20441;-57
2023/12/08 13:47:53;;;;;;;56.38;22.38;;;;;;;;;;4982336;28;20239;-57
2023/12/08 13:50:40;;;;;;;54.90;19.48;;;;;;;;;;4985123;28;20058;-57
2023/12/08 13:53:55;;;;;;;52.97;19.23;;;;;;;;;;4983259;28;20045;-56
2023/12/08 13:56:42;;;;;;;58.97;21.52;;;;;;;;;;4980294;28;20411;-56
2023/12/08 13:59:36;;;;;;;63.00;21.75;;;;;;;;;;4980760;28;20050;-65
2023/12/08 14:02:23;;;;;;;62.50;22.27;;;;;;;;;;4985240;28;20144;-66
2023/12/08 14:05:18;;;;;;;59.90;22.30;;;;;;;;;;4983780;28;20134;-66
2023/12/08 14:08:11;;;;;;;63.15;22.73;;;;;;;;;;4984305;28;20058;-53
2023/12/08 14:11:06;;;;;;;64.90;22.73;;;;;;;;;;4981113;28;20062;-54
2023/12/08 14:13:53;;;;;;;65.75;23.48;;;;;;;;;;4981898;28;20078;-50
2023/12/08 14:16:47;;;;;;;60.63;21.13;;;;;;;;;;4984042;28;20054;-54
2023/12/08 14:19:34;;;;;;;62.90;22.10;;;;;;;;;;4983933;28;20050;-49
2023/12/08 14:22:28;;;;;;;66.55;23.23;;;;;;;;;;4981629;28;20125;-53
2023/12/08 14:25:15;;;;;;;55.95;21.08;;;;;;;;;;4981248;28;20046;-51
2023/12/08 14:28:09;;;;;;;64.97;22.92;;;;;;;;;;4979977;28;20465;-51
2023/12/08 14:30:56;;;;;;;66.05;22.10;;;;;;;;;;4982263;28;20462;-55
2023/12/08 14:33:50;;;;;;;69.00;23.25;;;;;;;;;;4979881;28;20061;-52
2023/12/08 14:36:45;;;;;;;58.92;22.05;;;;;;;;;;4980035;28;20589;-66
2023/12/08 14:39:32;;;;;;;52.25;16.92;;;;;;;;;;4982296;28;20164;-59
2023/12/08 14:42:26;;;;;;;65.78;22.98;;;;;;;;;;4982765;28;20061;-57
2023/12/08 14:45:13;;;;;;;64.50;23.08;;;;;;;;;;4980937;28;20039;-59
2023/12/08 14:48:07;;;;;;;64.18;22.42;;;;;;;;;;4980517;28;20528;-57
2023/12/08 14:50:55;;;;;;;58.70;22.65;;;;;;;;;;4979785;28;20512;-57
2023/12/08 14:53:48;;;;;;;59.45;21.23;;;;;;;;;;4978358;28;20437;-59
2023/12/08 14:56:41;;;;;;;60.92;22.63;;;;;;;;;;4983738;28;20771;-59
2023/12/08 14:59:36;;;;;;;62.45;21.10;;;;;;;;;;4979981;28;20066;-56
2023/12/08 15:02:23;;;;;;;61.60;23.42;;;;;;;;;;4982248;28;20141;-58
2023/12/08 15:05:17;;;;;;;67.38;23.38;;;;;;;;;;4984633;28;20054;-66
2023/12/08 15:08:10;;;;;;;64.45;21.58;;;;;;;;;;4978575;28;20082;-65
2023/12/08 15:11:05;;;;;;;49.35;18.30;;;;;;;;;;4978377;28;20054;-65
2023/12/08 15:13:52;;;;;;;61.42;22.98;;;;;;;;;;4973712;28;20110;-65
2023/12/08 15:16:45;;;;;;;59.30;22.92;;;;;;;;;;4978964;28;20051;-64
2023/12/08 15:19:33;;;;;;;52.75;20.55;;;;;;;;;;4987601;28;20137;-64
2023/12/08 15:22:27;;;;;;;61.05;21.55;;;;;;;;;;4981297;28;20056;-66
2023/12/08 15:25:14;;;;;;;57.55;20.90;;;;;;;;;;4978972;28;20152;-58
2023/12/08 15:28:08;;;;;;;56.97;20.50;;;;;;;;;;4978643;28;20054;-58
2023/12/08 15:31:03;;;;;;;57.28;21.13;;;;;;;;;;4972573;28;20051;-58
2023/12/08 15:33:57;;;;;;;58.53;21.73;;;;;;;;;;4981744;28;20046;-59
2023/12/08 15:36:45;;;;;;;51.50;20.02;;;;;;;;;;4976154;28;20054;-59
2023/12/08 15:39:40;;;;;;;60.05;21.33;;;;;;;;;;4978512;28;20054;-58
2023/12/08 15:42:27;;;;;;;54.30;19.95;;;;;;;;;;4981070;28;20057;-57
2023/12/08 15:45:23;;;;;;;53.08;21.08;;;;;;;;;;4979824;28;20433;-58
2023/12/08 15:48:15;;;;;;;56.38;20.25;;;;;;;;;;4977994;28;20074;-58
2023/12/08 15:51:13;;;;;;;56.50;21.15;;;;;;;;;;4975989;28;20058;-57
2023/12/08 15:54:04;;;;;;;53.70;20.02;;;;;;;;;;4977727;28;20145;-58
2023/12/08 15:56:51;;;;;;;54.08;21.13;;;;;;;;;;4977869;28;20066;-56
2023/12/08 15:59:45;;;;;;;55.20;22.05;;;;;;;;;;4972467;28;20064;-59
2023/12/08 16:02:32;;;;;;;55.70;21.73;;;;;;;;;;4978330;28;20429;-60
2023/12/08 16:05:27;;;;;;;50.42;20.90;;;;;;;;;;4980879;28;20510;-53
2023/12/08 16:08:20;;;;;;;56.45;22.45;;;;;;;;;;4982072;28;20050;-49
2023/12/08 16:11:23;;;;;;;51.00;21.38;;;;;;;;;;4981931;28;20597;-49
2023/12/08 16:14:10;;;;;;;54.05;23.05;;;;;;;;;;4976922;28;20053;-52
2023/12/08 16:17:04;;;;;;;47.17;17.98;;;;;;;;;;4981218;28;20050;-52
2023/12/08 16:19:58;;;;;;;49.25;20.05;;;;;;;;;;4979420;28;20062;-57
2023/12/08 16:22:45;;;;;;;51.60;21.77;;;;;;;;;;4980404;28;20050;-57
2023/12/08 16:25:39;;;;;;;60.97;22.10;;;;;;;;;;4981996;28;20109;-58